createdAt,value
2023-04-10T00:01:36.786Z,101299.03
2023-04-10T00:04:05.081Z,101301.69
2023-04-10T00:06:34.703Z,101300.03
2023-04-10T00:09:02.989Z,101283.03
2023-04-10T00:11:30.935Z,101286.53
2023-04-10T00:13:58.934Z,101287.69
2023-04-10T00:16:26.949Z,101278.00
2023-04-10T00:18:55.061Z,101266.38
2023-04-10T00:21:23.014Z,101260.72
2023-04-10T00:23:52.674Z,101257.06
2023-04-10T00:26:21.480Z,101256.53
2023-04-10T00:28:49.523Z,101248.16
2023-04-10T00:31:17.509Z,101254.31
2023-04-10T00:33:45.536Z,101259.28
2023-04-10T00:36:13.671Z,101247.31
2023-04-10T00:38:43.052Z,101246.31
2023-04-10T00:41:12.463Z,101245.81
2023-04-10T00:43:40.536Z,101244.13
2023-04-10T00:46:08.636Z,101238.94
2023-04-10T00:48:36.668Z,101231.94
2023-04-10T00:51:04.734Z,101225.91
2023-04-10T00:53:32.675Z,101224.41
2023-04-10T00:56:02.607Z,101234.22
2023-04-10T00:58:32.014Z,101224.84
2023-04-10T01:00:59.947Z,101218.03
2023-04-10T01:03:28.167Z,101209.66
2023-04-10T01:06:00.692Z,101219.91
2023-04-10T01:08:32.653Z,101217.56
2023-04-10T01:11:03.039Z,101213.38
2023-04-10T01:13:35.469Z,101210.34
2023-04-10T01:16:06.066Z,101203.19
2023-04-10T01:18:38.270Z,101199.97
2023-04-10T01:21:09.290Z,101201.94
2023-04-10T01:23:51.309Z,101206.44
2023-04-10T01:26:19.851Z,101201.72
2023-04-10T01:28:54.370Z,101206.91
2023-04-10T01:31:25.508Z,101211.72
2023-04-10T01:33:57.954Z,101203.19
2023-04-10T01:36:29.772Z,101216.66
2023-04-10T01:39:00.294Z,101206.81
2023-04-10T01:41:29.442Z,101218.47
2023-04-10T01:43:59.631Z,101214.44
2023-04-10T01:46:28.446Z,101216.13
2023-04-10T01:48:56.420Z,101199.16
2023-04-10T01:51:24.375Z,101192.84
2023-04-10T01:53:52.656Z,101185.84
2023-04-10T01:56:25.622Z,101176.88
2023-04-10T01:58:53.689Z,101174.03
2023-04-10T02:01:29.899Z,101172.06
2023-04-10T02:03:59.075Z,101165.88
2023-04-10T02:06:32.024Z,101162.22
2023-04-10T02:09:03.824Z,101157.75
2023-04-10T02:11:35.362Z,101161.53
2023-04-10T02:14:05.598Z,101156.91
2023-04-10T02:16:34.993Z,101161.53
2023-04-10T02:19:02.967Z,101156.06
2023-04-10T02:21:31.204Z,101155.78
2023-04-10T02:23:59.134Z,101150.97
2023-04-10T02:26:27.091Z,101145.00
2023-04-10T02:28:55.215Z,101135.75
2023-04-10T02:31:23.319Z,101130.78
2023-04-10T02:33:52.768Z,101121.78
2023-04-10T02:36:21.568Z,101114.31
2023-04-10T02:38:49.529Z,101106.84
2023-04-10T02:41:17.606Z,101100.53
2023-04-10T02:43:45.793Z,101102.66
2023-04-10T02:46:13.842Z,101096.13
2023-04-10T02:48:41.830Z,101091.09
2023-04-10T02:51:13.636Z,101079.59
2023-04-10T02:53:41.908Z,101076.78
2023-04-10T02:56:11.951Z,101075.09
2023-04-10T02:58:45.470Z,101071.78
2023-04-10T03:01:14.784Z,101063.41
2023-04-10T03:03:47.556Z,101068.72
2023-04-10T03:06:27.296Z,101063.72
2023-04-10T03:08:57.155Z,101060.09
2023-04-10T03:11:25.243Z,101047.41
2023-04-10T03:13:53.852Z,101041.50
2023-04-10T03:16:22.268Z,101028.19
2023-04-10T03:18:50.599Z,101034.75
2023-04-10T03:21:21.527Z,101037.91
2023-04-10T03:23:52.527Z,101031.88
2023-04-10T03:26:20.998Z,101042.88
2023-04-10T03:28:48.910Z,101046.69
2023-04-10T03:31:16.964Z,101041.84
2023-04-10T03:33:46.643Z,101032.47
2023-04-10T03:36:16.180Z,101030.84
2023-04-10T03:38:44.152Z,101019.63
2023-04-10T03:41:13.432Z,101017.97
2023-04-10T03:43:42.044Z,101019.34
2023-04-10T03:46:10.114Z,101014.84
2023-04-10T03:48:42.907Z,101016.50
2023-04-10T03:51:11.595Z,101015.84
2023-04-10T03:53:39.550Z,101014.00
2023-04-10T03:56:13.596Z,101015.88
2023-04-10T03:58:42.256Z,101010.75
2023-04-10T04:01:10.679Z,101003.59
2023-04-10T04:03:56.023Z,101009.31
2023-04-10T04:06:48.714Z,101007.50
2023-04-10T04:09:16.645Z,101004.34
2023-04-10T04:11:58.514Z,101000.03
2023-04-10T04:14:51.803Z,100995.88
2023-04-10T04:17:38.869Z,100991.06
2023-04-10T04:20:12.699Z,101000.75
2023-04-10T04:23:06.536Z,100996.72
2023-04-10T04:25:40.497Z,101004.03
2023-04-10T04:28:30.231Z,100995.47
2023-04-10T04:31:16.262Z,100990.78
2023-04-10T04:34:03.141Z,100991.09
2023-04-10T04:36:42.918Z,100989.25
2023-04-10T04:39:49.230Z,100987.75
2023-04-10T04:42:38.308Z,100977.94
2023-04-10T04:45:18.925Z,100976.75
2023-04-10T04:48:11.098Z,100971.13
2023-04-10T04:51:07.680Z,100965.78
2023-04-10T04:53:45.828Z,100970.28
2023-04-10T04:56:29.033Z,100968.94
2023-04-10T04:59:12.618Z,100970.41
2023-04-10T05:02:00.459Z,100977.53
2023-04-10T05:05:04.140Z,100965.50
2023-04-10T05:07:52.846Z,100964.22
2023-04-10T05:10:47.009Z,100953.91
2023-04-10T05:13:24.342Z,100957.25
2023-04-10T05:16:12.539Z,100957.59
2023-04-10T05:19:14.846Z,100952.44
2023-04-10T05:21:53.163Z,100947.94
2023-04-10T05:24:44.077Z,100951.94
2023-04-10T05:27:18.346Z,100941.97
2023-04-10T05:30:04.576Z,100947.63
2023-04-10T05:32:46.052Z,100947.63
2023-04-10T05:35:33.940Z,100942.59
2023-04-10T05:38:22.180Z,100938.13
2023-04-10T05:41:10.535Z,100931.63
2023-04-10T05:43:41.736Z,100927.66
2023-04-10T05:46:28.447Z,100935.34
2023-04-10T05:49:25.879Z,100927.50
2023-04-10T05:52:15.497Z,100930.00
2023-04-10T05:54:43.418Z,100936.16
2023-04-10T05:57:26.711Z,100926.50
2023-04-10T06:00:19.194Z,100937.16
2023-04-10T06:03:07.198Z,100943.00
2023-04-10T06:05:45.941Z,100941.31
2023-04-10T06:08:15.540Z,100946.66
2023-04-10T06:10:43.473Z,100946.81
2023-04-10T06:13:12.725Z,100954.63
2023-04-10T06:15:41.573Z,100950.81
2023-04-10T06:18:09.764Z,100943.66
2023-04-10T06:20:38.755Z,100945.34
2023-04-10T06:23:06.959Z,100941.00
2023-04-10T06:25:36.287Z,100948.00
2023-04-10T06:28:04.324Z,100932.66
2023-04-10T06:30:34.023Z,100953.34
2023-04-10T06:33:02.706Z,100944.66
2023-04-10T06:35:33.058Z,100953.34
2023-04-10T06:38:01.018Z,100948.66
2023-04-10T06:40:30.983Z,100936.59
2023-04-10T06:43:00.553Z,100939.91
2023-04-10T06:45:34.779Z,100952.53
2023-04-10T06:48:02.836Z,100944.84
2023-04-10T06:50:33.290Z,100943.50
2023-04-10T06:53:01.449Z,100943.66
2023-04-10T06:55:29.475Z,100944.09
2023-04-10T06:57:57.588Z,100947.25
2023-04-10T07:00:26.923Z,100934.28
2023-04-10T07:02:55.205Z,100926.16
2023-04-10T07:05:23.732Z,100932.00
2023-04-10T07:07:51.785Z,100923.84
2023-04-10T07:10:19.700Z,100930.84
2023-04-10T07:12:47.637Z,100928.31
2023-04-10T07:15:16.122Z,100922.19
2023-04-10T07:17:45.667Z,100922.50
2023-04-10T07:20:13.964Z,100928.66
2023-04-10T07:22:41.934Z,100938.63
2023-04-10T07:25:10.555Z,100934.97
2023-04-10T07:27:38.515Z,100940.16
2023-04-10T07:30:07.791Z,100944.16
2023-04-10T07:32:39.743Z,100942.03
2023-04-10T07:35:10.542Z,100941.00
2023-04-10T07:37:39.883Z,100940.84
2023-04-10T07:40:11.485Z,100934.91
2023-04-10T07:42:39.624Z,100926.44
2023-04-10T07:45:08.904Z,100927.94
2023-04-10T07:47:37.019Z,100923.59
2023-04-10T07:50:05.787Z,100931.25
2023-04-10T07:52:35.403Z,100922.56
2023-04-10T07:55:03.845Z,100934.25
2023-04-10T07:57:32.379Z,100938.75
2023-04-10T08:00:00.841Z,100932.91
2023-04-10T08:02:28.907Z,100946.94
2023-04-10T08:04:57.203Z,100934.66
2023-04-10T08:07:25.286Z,100921.16
2023-04-10T08:09:54.625Z,100926.34
2023-04-10T08:12:22.828Z,100930.41
2023-04-10T08:14:51.691Z,100923.44
2023-04-10T08:17:19.714Z,100927.13
2023-04-10T08:19:47.726Z,100927.09
2023-04-10T08:22:15.715Z,100919.50
2023-04-10T08:24:43.787Z,100925.47
2023-04-10T08:27:16.286Z,100923.50
2023-04-10T08:29:44.426Z,100918.16
2023-04-10T08:32:12.515Z,100930.81
2023-04-10T08:34:40.591Z,100931.19
2023-04-10T08:37:11.368Z,100928.00
2023-04-10T08:39:40.073Z,100935.69
2023-04-10T08:42:08.308Z,100929.50
2023-04-10T08:44:39.146Z,100931.19
2023-04-10T08:47:07.293Z,100929.50
2023-04-10T08:49:40.343Z,100928.97
2023-04-10T08:52:09.697Z,100907.16
2023-04-10T08:54:39.695Z,100912.50
2023-04-10T08:57:09.845Z,100916.44
2023-04-10T08:59:40.386Z,100914.59
2023-04-10T09:02:08.352Z,100916.78
2023-04-10T09:04:36.606Z,100916.84
2023-04-10T09:07:04.635Z,100920.34
2023-04-10T09:09:34.303Z,100918.50
2023-04-10T09:12:03.940Z,100911.16
2023-04-10T09:14:32.451Z,100911.16
2023-04-10T09:17:18.221Z,100924.50
2023-04-10T09:19:46.606Z,100918.66
2023-04-10T09:22:14.648Z,100915.47
2023-04-10T09:24:43.316Z,100926.50
2023-04-10T09:27:11.290Z,100931.16
2023-04-10T09:29:48.321Z,100939.47
2023-04-10T09:32:36.956Z,100927.44
2023-04-10T09:35:08.506Z,100935.16
2023-04-10T09:37:36.883Z,100934.81
2023-04-10T09:40:05.557Z,100940.16
2023-04-10T09:42:34.267Z,100920.47
2023-04-10T09:45:02.402Z,100935.16
2023-04-10T09:47:32.286Z,100934.50
2023-04-10T09:50:01.425Z,100939.81
2023-04-10T09:52:29.939Z,100939.81
2023-04-10T09:54:58.690Z,100949.50
2023-04-10T09:57:29.764Z,100932.13
2023-04-10T10:00:00.496Z,100924.13
2023-04-10T10:02:31.546Z,100928.13
2023-04-10T10:05:01.473Z,100928.13
2023-04-10T10:07:29.595Z,100920.78
2023-04-10T10:09:57.639Z,100961.19
2023-04-10T10:12:27.768Z,100934.81
2023-04-10T10:15:04.470Z,100933.81
2023-04-10T10:17:37.628Z,100937.19
2023-04-10T10:20:06.856Z,100937.97
2023-04-10T10:22:34.818Z,100957.88
2023-04-10T10:25:02.895Z,100953.81
2023-04-10T10:27:32.714Z,100949.81
2023-04-10T10:30:02.990Z,100946.50
2023-04-10T10:32:35.706Z,100958.00
2023-04-10T10:35:04.005Z,100978.50
2023-04-10T10:37:31.939Z,100967.50
2023-04-10T10:40:02.372Z,100966.31
2023-04-10T10:42:34.447Z,100970.81
2023-04-10T10:45:08.704Z,100960.84
2023-04-10T10:47:41.969Z,100974.50
2023-04-10T10:50:10.496Z,100957.03
2023-04-10T10:52:43.060Z,100976.75
2023-04-10T10:55:32.543Z,100988.59
2023-04-10T10:58:02.270Z,100968.19
2023-04-10T11:01:10.334Z,100973.66
2023-04-10T11:03:40.885Z,100978.88
2023-04-10T11:06:09.153Z,100973.84
2023-04-10T11:08:44.977Z,100964.19
2023-04-10T11:11:17.221Z,100950.22
2023-04-10T11:14:24.227Z,100979.22
2023-04-10T11:16:52.409Z,100974.69
2023-04-10T11:19:23.708Z,100980.84
2023-04-10T11:22:05.790Z,100973.16
2023-04-10T11:24:53.345Z,100965.13
2023-04-10T11:27:40.812Z,100960.94
2023-04-10T11:30:34.571Z,100989.31
2023-04-10T11:33:03.855Z,100973.16
2023-04-10T11:35:34.039Z,100975.47
2023-04-10T11:38:15.512Z,100972.69
2023-04-10T11:41:04.223Z,100982.34
2023-04-10T11:43:32.563Z,100980.00
2023-04-10T11:46:07.778Z,100998.25
2023-04-10T11:48:37.061Z,100983.06
2023-04-10T11:51:10.928Z,100971.31
2023-04-10T11:53:38.979Z,100976.47
2023-04-10T11:56:08.715Z,100965.50
2023-04-10T11:58:37.046Z,100988.97
2023-04-10T12:01:08.006Z,101015.44
2023-04-10T12:03:37.454Z,100984.66
2023-04-10T12:06:06.726Z,100981.31
2023-04-10T12:08:36.825Z,100991.72
2023-04-10T12:11:05.040Z,100969.91
2023-04-10T12:13:33.276Z,101001.97
2023-04-10T12:16:02.270Z,100992.03
2023-04-10T12:18:30.684Z,101007.84
2023-04-10T12:20:59.460Z,101011.47
2023-04-10T12:23:28.275Z,101003.41
2023-04-10T12:26:08.515Z,101021.16
2023-04-10T12:28:39.151Z,101034.63
2023-04-10T12:31:08.010Z,101019.28
2023-04-10T12:33:36.051Z,101004.66
2023-04-10T12:36:08.029Z,100993.56
2023-04-10T12:38:39.654Z,101018.13
2023-04-10T12:41:09.658Z,101008.44
2023-04-10T12:43:38.396Z,101017.84
2023-04-10T12:46:10.670Z,101012.50
2023-04-10T12:48:38.821Z,101016.69
2023-04-10T12:51:08.163Z,101027.16
2023-04-10T12:53:44.369Z,101011.66
2023-04-10T12:56:14.782Z,101017.03
2023-04-10T12:58:43.747Z,101005.06
2023-04-10T13:01:11.717Z,100994.09
2023-04-10T13:03:39.917Z,101005.19
2023-04-10T13:06:08.802Z,101002.34
2023-04-10T13:08:37.082Z,100976.06
2023-04-10T13:11:05.794Z,100995.47
2023-04-10T13:13:35.577Z,100999.44
2023-04-10T13:16:03.942Z,100994.31
2023-04-10T13:18:32.067Z,100995.53
2023-04-10T13:21:00.292Z,100990.41
2023-04-10T13:23:28.313Z,100999.16
2023-04-10T13:25:56.847Z,100979.59
2023-04-10T13:28:24.830Z,101020.56
2023-04-10T13:30:54.194Z,101026.72
2023-04-10T13:33:22.235Z,101027.03
2023-04-10T13:35:50.337Z,101010.72
2023-04-10T13:38:20.027Z,101035.28
2023-04-10T13:40:49.585Z,101018.66
2023-04-10T13:43:17.706Z,101044.78
2023-04-10T13:45:46.028Z,101060.28
2023-04-10T13:48:17.641Z,101022.78
2023-04-10T13:50:47.090Z,101066.81
2023-04-10T13:53:15.138Z,101056.94
2023-04-10T13:55:43.819Z,101050.31
2023-04-10T13:58:12.116Z,101022.41
2023-04-10T14:00:40.284Z,101065.22
2023-04-10T14:03:10.304Z,101048.94
2023-04-10T14:05:39.883Z,101048.22
2023-04-10T14:08:25.388Z,101027.44
2023-04-10T14:10:53.527Z,101018.50
2023-04-10T14:13:21.448Z,101050.81
2023-04-10T14:15:52.016Z,101038.41
2023-04-10T14:18:20.104Z,101032.34
2023-04-10T14:20:49.394Z,101070.69
2023-04-10T14:23:18.407Z,101060.56
2023-04-10T14:25:46.592Z,101035.66
2023-04-10T14:28:18.285Z,101050.22
2023-04-10T14:30:46.498Z,101053.50
2023-04-10T14:33:14.530Z,101048.22
2023-04-10T14:35:42.749Z,101061.84
2023-04-10T14:38:12.288Z,101035.22
2023-04-10T14:40:40.718Z,101038.81
2023-04-10T14:43:08.815Z,101047.53
2023-04-10T14:45:37.123Z,101039.63
2023-04-10T14:48:05.732Z,101050.50
2023-04-10T14:50:33.921Z,101052.03
2023-04-10T14:53:01.869Z,101042.03
2023-04-10T14:55:31.454Z,101047.94
2023-04-10T14:57:59.370Z,101043.00
2023-04-10T15:00:29.598Z,101052.16
2023-04-10T15:02:58.377Z,101001.72
2023-04-10T15:05:26.746Z,101043.59
2023-04-10T15:07:54.730Z,101048.53
2023-04-10T15:10:22.956Z,101042.75
2023-04-10T15:12:52.447Z,101054.31
2023-04-10T15:15:20.580Z,101038.78
2023-04-10T15:17:50.231Z,101062.34
2023-04-10T15:20:18.411Z,101051.44
2023-04-10T15:22:48.152Z,101052.31
2023-04-10T15:25:33.829Z,101055.63
2023-04-10T15:28:03.491Z,101083.84
2023-04-10T15:30:31.976Z,101051.97
2023-04-10T15:33:00.358Z,101073.34
2023-04-10T15:35:30.398Z,101058.03
2023-04-10T15:37:58.653Z,101066.81
2023-04-10T15:40:26.683Z,101062.56
2023-04-10T15:42:54.662Z,101055.72
2023-04-10T15:45:24.095Z,101053.34
2023-04-10T15:47:52.139Z,101068.81
2023-04-10T15:50:20.283Z,101042.09
2023-04-10T15:52:48.556Z,101041.19
2023-04-10T15:55:17.096Z,101041.38
2023-04-10T15:57:45.089Z,101040.47
2023-04-10T16:00:14.398Z,101061.28
2023-04-10T16:02:44.032Z,101056.66
2023-04-10T16:05:12.271Z,101049.44
2023-04-10T16:07:42.372Z,101056.50
2023-04-10T16:10:12.369Z,101067.91
2023-04-10T16:12:42.440Z,101043.53
2023-04-10T16:15:11.019Z,101056.91
2023-04-10T16:17:39.620Z,101064.06
2023-04-10T16:20:09.663Z,101055.66
2023-04-10T16:22:37.658Z,101068.09
2023-04-10T16:25:06.407Z,101077.75
2023-04-10T16:27:34.481Z,101064.25
2023-04-10T16:30:02.527Z,101079.31
2023-04-10T16:32:31.718Z,101089.72
2023-04-10T16:35:00.196Z,101088.81
2023-04-10T16:37:29.604Z,101106.72
2023-04-10T16:39:57.677Z,101107.19
2023-04-10T16:42:25.584Z,101093.69
2023-04-10T16:44:53.655Z,101098.59
2023-04-10T16:47:21.524Z,101098.63
2023-04-10T16:49:49.544Z,101098.91
2023-04-10T16:52:17.666Z,101094.91
2023-04-10T16:54:46.971Z,101096.09
2023-04-10T16:57:14.937Z,101109.06
2023-04-10T16:59:42.844Z,101093.97
2023-04-10T17:02:10.925Z,101090.50
2023-04-10T17:04:38.934Z,101116.00
2023-04-10T17:07:06.816Z,101109.53
2023-04-10T17:09:34.865Z,101124.00
2023-04-10T17:12:04.200Z,101126.78
2023-04-10T17:14:32.235Z,101104.78
2023-04-10T17:17:00.222Z,101114.81
2023-04-10T17:19:28.203Z,101111.03
2023-04-10T17:21:56.120Z,101066.78
2023-04-10T17:24:24.148Z,101127.75
2023-04-10T17:26:52.135Z,101110.06
2023-04-10T17:29:21.416Z,101136.88
2023-04-10T17:31:49.360Z,101132.81
2023-04-10T17:34:17.290Z,101116.47
2023-04-10T17:36:45.261Z,101118.31
2023-04-10T17:39:13.226Z,101138.44
2023-04-10T17:41:41.191Z,101136.19
2023-04-10T17:44:10.547Z,101146.09
2023-04-10T17:46:39.807Z,101133.41
2023-04-10T17:49:07.855Z,101116.72
2023-04-10T17:51:35.925Z,101122.78
2023-04-10T17:54:04.153Z,101145.66
2023-04-10T17:56:32.034Z,101129.56
2023-04-10T17:59:00.618Z,101142.00
2023-04-10T18:01:30.174Z,101142.53
2023-04-10T18:04:00.183Z,101146.88
2023-04-10T18:06:28.226Z,101146.88
2023-04-10T18:08:57.179Z,101131.47
2023-04-10T18:11:25.410Z,101156.06
2023-04-10T18:13:53.360Z,101131.03
2023-04-10T18:16:21.446Z,101134.97
2023-04-10T18:18:49.426Z,101143.38
2023-04-10T18:21:18.783Z,101145.78
2023-04-10T18:23:46.708Z,101147.81
2023-04-10T18:26:14.746Z,101144.06
2023-04-10T18:28:43.554Z,101156.69
2023-04-10T18:31:14.765Z,101161.19
2023-04-10T18:33:43.443Z,101151.13
2023-04-10T18:36:13.928Z,101156.53
2023-04-10T18:38:43.918Z,101151.97
2023-04-10T18:41:12.001Z,101152.84
2023-04-10T18:43:40.082Z,101165.94
2023-04-10T18:46:08.339Z,101174.63
2023-04-10T18:48:36.629Z,101181.53
2023-04-10T18:51:04.715Z,101194.78
2023-04-10T18:53:32.639Z,101193.44
2023-04-10T18:56:01.908Z,101185.50
2023-04-10T18:58:30.051Z,101195.44
2023-04-10T19:00:58.048Z,101204.41
2023-04-10T19:03:26.744Z,101192.78
2023-04-10T19:05:54.882Z,101209.44
2023-04-10T19:08:23.023Z,101212.00
2023-04-10T19:10:51.115Z,101225.19
2023-04-10T19:13:20.373Z,101229.91
2023-04-10T19:15:48.496Z,101216.50
2023-04-10T19:18:16.670Z,101246.34
2023-04-10T19:20:50.032Z,101237.47
2023-04-10T19:23:19.717Z,101247.44
2023-04-10T19:25:47.837Z,101250.84
2023-04-10T19:28:15.890Z,101268.06
2023-04-10T19:30:45.196Z,101254.22
2023-04-10T19:33:13.288Z,101271.31
2023-04-10T19:35:41.273Z,101276.50
2023-04-10T19:38:09.297Z,101280.16
2023-04-10T19:40:37.278Z,101286.31
2023-04-10T19:43:05.399Z,101280.16
2023-04-10T19:45:33.368Z,101275.09
2023-04-10T19:48:02.799Z,101277.75
2023-04-10T19:50:31.869Z,101278.59
2023-04-10T19:52:59.860Z,101273.69
2023-04-10T19:55:27.906Z,101267.44
2023-04-10T19:57:55.964Z,101266.47
2023-04-10T20:00:23.960Z,101259.59
2023-04-10T20:02:52.060Z,101258.88
2023-04-10T20:05:21.620Z,101272.09
2023-04-10T20:07:50.420Z,101282.81
2023-04-10T20:10:18.503Z,101276.97
2023-04-10T20:12:46.428Z,101290.78
2023-04-10T20:15:14.365Z,101292.75
2023-04-10T20:17:42.457Z,101294.72
2023-04-10T20:20:12.714Z,101296.25
2023-04-10T20:22:43.080Z,101296.97
2023-04-10T20:25:11.257Z,101285.22
2023-04-10T20:27:39.218Z,101293.34
2023-04-10T20:30:08.551Z,101293.19
2023-04-10T20:32:37.039Z,101295.28
2023-04-10T20:35:05.489Z,101292.50
2023-04-10T20:37:33.449Z,101299.47
2023-04-10T20:40:03.213Z,101298.38
2023-04-10T20:42:31.183Z,101315.72
2023-04-10T20:44:59.084Z,101311.78
2023-04-10T20:47:27.193Z,101309.97
2023-04-10T20:49:55.088Z,101325.50
2023-04-10T20:52:23.191Z,101318.94
2023-04-10T20:54:51.079Z,101329.03
2023-04-10T20:57:20.433Z,101346.22
2023-04-10T20:59:48.375Z,101345.38
2023-04-10T21:02:18.063Z,101341.44
2023-04-10T21:04:46.164Z,101350.97
2023-04-10T21:07:14.098Z,101337.66
2023-04-10T21:09:42.107Z,101365.50
2023-04-10T21:12:10.120Z,101356.84
2023-04-10T21:14:39.415Z,101375.84
2023-04-10T21:17:07.425Z,101376.44
2023-04-10T21:19:35.339Z,101370.00
2023-04-10T21:22:03.323Z,101369.16
2023-04-10T21:24:31.313Z,101357.66
2023-04-10T21:26:59.613Z,101378.06
2023-04-10T21:29:27.493Z,101367.16
2023-04-10T21:31:57.250Z,101352.91
2023-04-10T21:34:25.508Z,101377.53
2023-04-10T21:36:53.414Z,101381.72
2023-04-10T21:39:21.339Z,101386.50
2023-04-10T21:41:49.245Z,101378.91
2023-04-10T21:44:17.104Z,101385.63
2023-04-10T21:46:45.205Z,101385.94
2023-04-10T21:49:14.472Z,101398.91
2023-04-10T21:51:42.447Z,101384.78
2023-04-10T21:54:10.376Z,101387.03
2023-04-10T21:56:40.848Z,101397.53
2023-04-10T21:59:08.924Z,101392.34
2023-04-10T22:01:37.048Z,101408.31
2023-04-10T22:04:05.215Z,101410.56
2023-04-10T22:06:34.637Z,101414.72
2023-04-10T22:09:02.562Z,101395.13
2023-04-10T22:11:30.480Z,101406.88
2023-04-10T22:14:02.877Z,101410.84
2023-04-10T22:16:37.232Z,101407.91
2023-04-10T22:19:05.101Z,101398.78
2023-04-10T22:21:34.439Z,101408.00
2023-04-10T22:24:02.868Z,101399.63
2023-04-10T22:26:32.850Z,101392.63
2023-04-10T22:29:00.783Z,101401.16
2023-04-10T22:31:28.791Z,101394.88
2023-04-10T22:33:56.733Z,101398.81
2023-04-10T22:36:24.639Z,101395.56
2023-04-10T22:38:54.205Z,101409.69
2023-04-10T22:41:22.250Z,101406.53
2023-04-10T22:43:50.192Z,101413.00
2023-04-10T22:46:18.448Z,101408.88
2023-04-10T22:48:47.056Z,101403.34
2023-04-10T22:51:15.000Z,101413.81
2023-04-10T22:53:42.991Z,101411.81
2023-04-10T22:56:12.798Z,101388.78
2023-04-10T22:58:40.922Z,101405.25
2023-04-10T23:01:11.716Z,101402.03
2023-04-10T23:03:40.106Z,101410.81
2023-04-10T23:06:08.848Z,101406.88
2023-04-10T23:08:37.578Z,101403.56
2023-04-10T23:11:05.719Z,101402.72
2023-04-10T23:13:35.040Z,101416.19
2023-04-10T23:16:03.283Z,101407.50
2023-04-10T23:18:31.274Z,101413.66
2023-04-10T23:20:59.354Z,101421.47
2023-04-10T23:23:27.347Z,101417.00
2023-04-10T23:25:58.892Z,101408.06
2023-04-10T23:28:26.909Z,101414.47
2023-04-10T23:30:56.192Z,101417.13
2023-04-10T23:33:24.276Z,101418.38
2023-04-10T23:35:52.310Z,101420.91
2023-04-10T23:38:21.204Z,101425.34
2023-04-10T23:40:49.092Z,101423.56
2023-04-10T23:43:17.001Z,101423.53
2023-04-10T23:45:44.975Z,101434.34
2023-04-10T23:48:14.236Z,101432.38
2023-04-10T23:50:42.179Z,101442.16
2023-04-10T23:53:10.232Z,101452.94
2023-04-10T23:55:39.807Z,101441.41
2023-04-10T23:58:07.960Z,101447.25
